Time;durP1;ratioP1;P1;durP2;ratioP2;P2;SDS_P1;SDS_P2;PMS_P1;PMS_P2;Temp;Humidity;BMP_temperature;BMP_pressure;BME280_temperature;BME280_humidity;BME280_pressure;Samples;Min_cycle;Max_cycle;Signal;HPM_P1;HPM_P2
2021/07/12 00:00:27;;;;;;;7.35;3.75;;;;;;;;;;4915200;29;20087;-68
2021/07/12 00:02:55;;;;;;;5.60;3.33;;;;;;;;;;4915276;29;20048;-68
2021/07/12 00:05:22;;;;;;;3.53;3.22;;;;;;;;;;4915238;29;20139;-68
2021/07/12 00:07:49;;;;;;;5.63;3.00;;;;;;;;;;4915046;29;20079;-68
2021/07/12 00:10:19;;;;;;;4.03;3.50;;;;;;;;;;4915335;29;20127;-68
2021/07/12 00:12:46;;;;;;;4.68;3.30;;;;;;;;;;4915207;29;20075;-68
2021/07/12 00:15:16;;;;;;;3.97;3.47;;;;;;;;;;4915038;29;20075;-68
2021/07/12 00:17:43;;;;;;;4.32;3.92;;;;;;;;;;4915076;29;20052;-69
2021/07/12 00:20:11;;;;;;;5.18;4.00;;;;;;;;;;4915187;29;20048;-68
2021/07/12 00:22:38;;;;;;;5.70;4.28;;;;;;;;;;4914807;29;20095;-68
2021/07/12 00:25:06;;;;;;;5.50;4.10;;;;;;;;;;4915166;29;20092;-68
2021/07/12 00:27:34;;;;;;;4.90;3.80;;;;;;;;;;4915286;29;20087;-69
2021/07/12 00:30:01;;;;;;;5.57;3.80;;;;;;;;;;4915191;29;20078;-68
2021/07/12 00:32:27;;;;;;;4.20;3.72;;;;;;;;;;4914909;29;20079;-68
2021/07/12 00:34:54;;;;;;;6.70;3.50;;;;;;;;;;4915004;29;20095;-68
2021/07/12 00:37:20;;;;;;;5.10;3.47;;;;;;;;;;4914935;29;20087;-68
2021/07/12 00:39:47;;;;;;;3.72;3.28;;;;;;;;;;4916548;29;20503;-68
2021/07/12 00:42:13;;;;;;;6.05;3.78;;;;;;;;;;4918540;29;20143;-69
2021/07/12 00:44:42;;;;;;;4.03;3.65;;;;;;;;;;4917133;29;20079;-69
2021/07/12 00:47:08;;;;;;;5.40;3.65;;;;;;;;;;4918263;29;20090;-69
2021/07/12 00:49:36;;;;;;;5.28;4.30;;;;;;;;;;4932778;29;20506;-68
2021/07/12 00:52:03;;;;;;;3.50;3.20;;;;;;;;;;4935816;29;20216;-68
2021/07/12 00:54:30;;;;;;;4.30;3.60;;;;;;;;;;4937025;29;20111;-68
2021/07/12 00:57:02;;;;;;;9.55;4.22;;;;;;;;;;4929911;29;20079;-68
2021/07/12 00:59:29;;;;;;;8.07;4.00;;;;;;;;;;4917977;29;20131;-69
2021/07/12 01:01:55;;;;;;;4.88;3.30;;;;;;;;;;4918027;29;20315;-69
2021/07/12 01:04:22;;;;;;;5.47;4.22;;;;;;;;;;4922841;29;20044;-68
2021/07/12 01:06:49;;;;;;;5.40;4.28;;;;;;;;;;4936787;29;20087;-68
2021/07/12 01:09:16;;;;;;;5.47;4.60;;;;;;;;;;4935750;29;20083;-68
2021/07/12 01:11:53;;;;;;;5.22;4.03;;;;;;;;;;4936630;29;20102;-68
2021/07/12 01:14:49;;;;;;;4.03;3.63;;;;;;;;;;4936812;29;20787;-68
2021/07/12 01:17:24;;;;;;;4.45;3.65;;;;;;;;;;4935494;29;20093;-68
2021/07/12 01:20:14;;;;;;;5.45;3.83;;;;;;;;;;4920154;29;20083;-68
2021/07/12 01:23:04;;;;;;;7.05;3.70;;;;;;;;;;4936443;29;20079;-68
2021/07/12 01:26:09;;;;;;;5.05;3.55;;;;;;;;;;4935335;29;20094;-68
2021/07/12 01:29:00;;;;;;;4.95;3.47;;;;;;;;;;4935272;29;20060;-69
2021/07/12 01:31:41;;;;;;;4.55;3.10;;;;;;;;;;4936149;29;20083;-68
2021/07/12 01:34:15;;;;;;;4.60;3.10;;;;;;;;;;4917608;29;20130;-69
2021/07/12 01:36:56;;;;;;;5.43;3.60;;;;;;;;;;4917212;29;20500;-68
2021/07/12 01:39:28;;;;;;;6.35;3.30;;;;;;;;;;4916137;29;20091;-68
2021/07/12 01:42:08;;;;;;;3.63;3.28;;;;;;;;;;4931621;29;20090;-68
2021/07/12 01:44:58;;;;;;;4.50;3.20;;;;;;;;;;4931989;29;20080;-68
2021/07/12 01:47:47;;;;;;;5.68;3.50;;;;;;;;;;4912492;29;20130;-68
2021/07/12 01:50:46;;;;;;;3.83;3.33;;;;;;;;;;4897936;29;20084;-68
2021/07/12 01:53:35;;;;;;;3.28;2.97;;;;;;;;;;4912648;29;20099;-68
2021/07/12 01:56:16;;;;;;;5.45;3.35;;;;;;;;;;4910526;29;20086;-68
2021/07/12 01:58:46;;;;;;;7.50;3.42;;;;;;;;;;4912407;29;20087;-68
2021/07/12 02:01:13;;;;;;;5.53;3.83;;;;;;;;;;4922905;29;20056;-68
2021/07/12 02:03:39;;;;;;;6.35;3.40;;;;;;;;;;4915669;29;20083;-68
2021/07/12 02:06:07;;;;;;;4.53;3.55;;;;;;;;;;4915761;29;20485;-68
2021/07/12 02:08:34;;;;;;;4.25;3.20;;;;;;;;;;4915455;29;20087;-68
2021/07/12 02:11:01;;;;;;;3.78;3.47;;;;;;;;;;4900009;29;20075;-68
2021/07/12 02:13:28;;;;;;;4.85;3.72;;;;;;;;;;4915390;29;20060;-68
2021/07/12 02:15:55;;;;;;;6.10;3.28;;;;;;;;;;4899929;29;20059;-68
2021/07/12 02:18:25;;;;;;;4.30;3.75;;;;;;;;;;4899821;29;20056;-68
2021/07/12 02:20:52;;;;;;;5.90;3.60;;;;;;;;;;4915136;29;20091;-68
2021/07/12 02:23:19;;;;;;;4.50;3.28;;;;;;;;;;4899723;29;20094;-68
2021/07/12 02:25:45;;;;;;;5.95;3.55;;;;;;;;;;4915299;29;20139;-68
2021/07/12 02:28:12;;;;;;;3.80;3.50;;;;;;;;;;4899685;29;20079;-68
2021/07/12 02:30:38;;;;;;;4.00;3.50;;;;;;;;;;4916298;29;20083;-68
2021/07/12 02:33:05;;;;;;;6.05;3.83;;;;;;;;;;4916320;29;20515;-68
2021/07/12 02:35:32;;;;;;;3.63;3.20;;;;;;;;;;4899364;29;20084;-68
2021/07/12 02:37:59;;;;;;;5.63;4.28;;;;;;;;;;4916401;29;20147;-68
2021/07/12 02:40:25;;;;;;;4.18;3.55;;;;;;;;;;4899818;29;20091;-68
2021/07/12 02:42:53;;;;;;;5.07;3.83;;;;;;;;;;4914939;29;20075;-68
2021/07/12 02:45:20;;;;;;;4.68;3.13;;;;;;;;;;4914954;29;20107;-68
2021/07/12 02:47:47;;;;;;;4.20;3.70;;;;;;;;;;4914929;29;20094;-68
2021/07/12 02:50:15;;;;;;;9.40;3.33;;;;;;;;;;4930663;29;20105;-68
2021/07/12 02:52:48;;;;;;;4.68;3.45;;;;;;;;;;4914708;29;20083;-68
2021/07/12 02:55:15;;;;;;;4.55;3.30;;;;;;;;;;4933843;29;20155;-68
2021/07/12 02:57:44;;;;;;;4.03;3.22;;;;;;;;;;4934706;29;20090;-68
2021/07/12 03:00:11;;;;;;;4.03;3.30;;;;;;;;;;4934820;29;20143;-68
2021/07/12 03:02:39;;;;;;;4.20;3.70;;;;;;;;;;4933858;29;20083;-68
2021/07/12 03:05:07;;;;;;;3.90;3.50;;;;;;;;;;4934898;29;20098;-68
2021/07/12 03:07:37;;;;;;;3.85;3.55;;;;;;;;;;4927952;29;20147;-68
2021/07/12 03:10:07;;;;;;;5.80;3.60;;;;;;;;;;4915855;29;20660;-68
2021/07/12 03:12:49;;;;;;;4.20;3.83;;;;;;;;;;4914513;29;20083;-68
2021/07/12 03:15:18;;;;;;;4.80;3.33;;;;;;;;;;4914751;29;20088;-68
2021/07/12 03:17:53;;;;;;;4.20;3.70;;;;;;;;;;4914554;29;20056;-68
2021/07/12 03:20:20;;;;;;;4.30;3.50;;;;;;;;;;4899622;29;20048;-68
2021/07/12 03:22:52;;;;;;;3.97;3.58;;;;;;;;;;4914370;29;20139;-68
2021/07/12 03:25:24;;;;;;;7.30;4.70;;;;;;;;;;4898954;29;20125;-69
2021/07/12 03:27:53;;;;;;;5.45;3.70;;;;;;;;;;4899131;29;20135;-68
2021/07/12 03:30:19;;;;;;;5.38;3.90;;;;;;;;;;4898735;29;20475;-69
2021/07/12 03:32:46;;;;;;;3.95;3.65;;;;;;;;;;4898645;29;20084;-68
2021/07/12 03:35:13;;;;;;;4.18;3.78;;;;;;;;;;4925065;29;20079;-68
2021/07/12 03:37:41;;;;;;;3.72;3.40;;;;;;;;;;4933255;29;20087;-68
2021/07/12 03:40:08;;;;;;;3.97;3.60;;;;;;;;;;4933165;29;20083;-68
2021/07/12 03:42:35;;;;;;;4.65;3.72;;;;;;;;;;4933195;29;20079;-68
2021/07/12 03:45:03;;;;;;;4.18;3.78;;;;;;;;;;4933251;29;20087;-68
2021/07/12 03:47:31;;;;;;;4.68;4.00;;;;;;;;;;4934230;29;20083;-68
2021/07/12 03:50:11;;;;;;;4.20;3.80;;;;;;;;;;4896490;29;20084;-68
2021/07/12 03:52:41;;;;;;;5.93;4.00;;;;;;;;;;4896225;29;20515;-68
2021/07/12 03:55:08;;;;;;;4.28;3.58;;;;;;;;;;4896405;29;20095;-68
2021/07/12 03:57:35;;;;;;;4.82;3.50;;;;;;;;;;4896345;29;20091;-68
2021/07/12 04:00:03;;;;;;;4.28;3.58;;;;;;;;;;4896573;29;20080;-68
2021/07/12 04:02:30;;;;;;;4.20;3.63;;;;;;;;;;4896131;29;20059;-69
2021/07/12 04:04:56;;;;;;;4.63;3.97;;;;;;;;;;4895213;29;20098;-69
2021/07/12 04:07:23;;;;;;;3.53;3.10;;;;;;;;;;4896168;29;20079;-69
2021/07/12 04:09:49;;;;;;;7.30;4.28;;;;;;;;;;4896550;29;20076;-68
2021/07/12 04:12:23;;;;;;;6.38;4.60;;;;;;;;;;4896262;29;20080;-68
2021/07/12 04:14:51;;;;;;;6.47;3.85;;;;;;;;;;4899788;29;20504;-68
2021/07/12 04:17:17;;;;;;;8.60;3.80;;;;;;;;;;4935265;29;20083;-68
2021/07/12 04:19:44;;;;;;;4.32;3.40;;;;;;;;;;4937877;29;20075;-68
2021/07/12 04:22:11;;;;;;;6.55;3.65;;;;;;;;;;4937789;29;20173;-68
2021/07/12 04:24:37;;;;;;;7.72;4.13;;;;;;;;;;4937689;29;20098;-68
2021/07/12 04:27:04;;;;;;;6.45;4.00;;;;;;;;;;4937912;29;20083;-68
2021/07/12 04:29:31;;;;;;;9.25;5.07;;;;;;;;;;4937475;29;20055;-69
2021/07/12 04:32:03;;;;;;;5.32;3.55;;;;;;;;;;4937613;29;20051;-69
2021/07/12 04:34:29;;;;;;;5.63;4.32;;;;;;;;;;4937277;29;20059;-68
2021/07/12 04:36:56;;;;;;;10.05;4.43;;;;;;;;;;4937667;29;20471;-68
2021/07/12 04:39:23;;;;;;;7.10;4.03;;;;;;;;;;4937218;29;20075;-68
2021/07/12 04:41:50;;;;;;;4.90;4.00;;;;;;;;;;4937156;29;20083;-68
2021/07/12 04:44:16;;;;;;;5.25;3.45;;;;;;;;;;4937198;29;20511;-68
2021/07/12 04:46:43;;;;;;;7.20;4.13;;;;;;;;;;4937152;29;20440;-68
2021/07/12 04:49:11;;;;;;;7.18;4.88;;;;;;;;;;4918608;29;20112;-68
2021/07/12 04:51:38;;;;;;;6.53;4.40;;;;;;;;;;4918040;29;20048;-69
2021/07/12 04:54:05;;;;;;;6.00;4.38;;;;;;;;;;4918239;29;20476;-68
2021/07/12 04:56:33;;;;;;;8.88;4.47;;;;;;;;;;4918003;29;20092;-68
2021/07/12 04:59:03;;;;;;;7.20;4.70;;;;;;;;;;4917947;29;20100;-68
2021/07/12 05:01:33;;;;;;;4.38;3.97;;;;;;;;;;4917812;29;20076;-68
2021/07/12 05:04:01;;;;;;;4.72;4.32;;;;;;;;;;4918147;29;20477;-68
2021/07/12 05:06:28;;;;;;;5.72;5.00;;;;;;;;;;4917792;29;20143;-69
2021/07/12 05:08:55;;;;;;;5.22;4.30;;;;;;;;;;4917876;29;20527;-68
2021/07/12 05:11:23;;;;;;;4.07;3.38;;;;;;;;;;4917569;29;20048;-68
2021/07/12 05:13:51;;;;;;;5.30;3.85;;;;;;;;;;4918008;29;20056;-68
2021/07/12 05:16:18;;;;;;;7.80;3.70;;;;;;;;;;4932278;29;20083;-69
2021/07/12 05:18:45;;;;;;;4.20;3.80;;;;;;;;;;4917889;29;20131;-68
2021/07/12 05:21:11;;;;;;;5.28;4.35;;;;;;;;;;4916294;29;20075;-69
2021/07/12 05:23:38;;;;;;;7.03;3.70;;;;;;;;;;4922701;29;20467;-68
2021/07/12 05:26:05;;;;;;;5.32;3.80;;;;;;;;;;4918941;29;20559;-69
2021/07/12 05:28:31;;;;;;;8.15;4.82;;;;;;;;;;4929540;29;20127;-68
2021/07/12 05:30:58;;;;;;;4.85;3.60;;;;;;;;;;4936299;29;20087;-69
2021/07/12 05:33:24;;;;;;;6.03;3.35;;;;;;;;;;4936474;29;20056;-68
2021/07/12 05:35:51;;;;;;;7.70;3.75;;;;;;;;;;4936193;29;20091;-68
2021/07/12 05:38:17;;;;;;;4.85;3.28;;;;;;;;;;4936297;29;20087;-68
2021/07/12 05:40:44;;;;;;;6.38;4.13;;;;;;;;;;4936161;29;20135;-68
2021/07/12 05:43:10;;;;;;;5.35;2.88;;;;;;;;;;4936198;29;20460;-68
2021/07/12 05:45:37;;;;;;;8.25;3.53;;;;;;;;;;4936066;29;20102;-68
2021/07/12 05:48:04;;;;;;;3.50;3.20;;;;;;;;;;4934364;29;20098;-68
2021/07/12 05:50:30;;;;;;;3.88;3.22;;;;;;;;;;4934187;29;20146;-68
2021/07/12 05:52:57;;;;;;;3.97;3.30;;;;;;;;;;4933898;29;20155;-68
2021/07/12 05:55:24;;;;;;;5.43;3.33;;;;;;;;;;4934072;29;20487;-68
2021/07/12 05:57:50;;;;;;;5.72;3.45;;;;;;;;;;4934201;29;20094;-68
2021/07/12 06:00:17;;;;;;;4.45;3.03;;;;;;;;;;4933942;29;20503;-67
2021/07/12 06:02:43;;;;;;;4.57;3.33;;;;;;;;;;4933575;29;20079;-67
2021/07/12 06:05:11;;;;;;;9.98;3.97;;;;;;;;;;4933612;29;20143;-67
2021/07/12 06:07:37;;;;;;;4.30;3.20;;;;;;;;;;4933542;29;20091;-68
2021/07/12 06:10:05;;;;;;;4.10;3.65;;;;;;;;;;4932997;29;20083;-68
2021/07/12 06:12:32;;;;;;;5.28;3.33;;;;;;;;;;4933766;29;20515;-67
2021/07/12 06:14:59;;;;;;;6.32;3.05;;;;;;;;;;4933314;29;20515;-67
2021/07/12 06:17:25;;;;;;;4.15;2.70;;;;;;;;;;4933786;29;20083;-68
2021/07/12 06:19:52;;;;;;;3.28;2.85;;;;;;;;;;4929111;29;20174;-68
2021/07/12 06:22:19;;;;;;;6.28;3.00;;;;;;;;;;4914629;29;20083;-68
2021/07/12 06:24:45;;;;;;;5.85;2.03;;;;;;;;;;4914742;29;20487;-68
2021/07/12 06:27:12;;;;;;;2.40;2.05;;;;;;;;;;4914196;29;20099;-67
2021/07/12 06:29:38;;;;;;;5.50;4.50;;;;;;;;;;4913457;29;20084;-67
2021/07/12 06:32:06;;;;;;;6.28;3.83;;;;;;;;;;4914585;29;20539;-68
2021/07/12 06:34:32;;;;;;;2.40;2.00;;;;;;;;;;4914491;29;20728;-67
2021/07/12 06:36:59;;;;;;;2.22;1.60;;;;;;;;;;4914544;29;20054;-68
2021/07/12 06:39:25;;;;;;;2.33;2.13;;;;;;;;;;4914656;29;20056;-68
2021/07/12 06:41:52;;;;;;;3.25;1.90;;;;;;;;;;4913878;29;20482;-67
2021/07/12 06:44:18;;;;;;;2.95;2.30;;;;;;;;;;4914569;29;20523;-68
2021/07/12 06:46:45;;;;;;;5.05;2.55;;;;;;;;;;4914376;29;20087;-68
2021/07/12 06:49:11;;;;;;;1.95;1.60;;;;;;;;;;4914427;29;20146;-68
2021/07/12 06:51:38;;;;;;;2.20;2.00;;;;;;;;;;4914026;29;20143;-67
2021/07/12 06:54:04;;;;;;;1.63;1.52;;;;;;;;;;4897487;29;20477;-66
2021/07/12 06:56:31;;;;;;;1.80;1.40;;;;;;;;;;4911029;29;20083;-67
2021/07/12 06:58:58;;;;;;;2.97;1.48;;;;;;;;;;4912823;29;20060;-67
2021/07/12 07:01:24;;;;;;;3.88;2.28;;;;;;;;;;4911688;29;20079;-66
2021/07/12 07:03:52;;;;;;;2.55;1.42;;;;;;;;;;4912955;29;20492;-67
2021/07/12 07:06:19;;;;;;;1.90;1.73;;;;;;;;;;4912690;29;20080;-66
2021/07/12 07:08:46;;;;;;;2.30;1.73;;;;;;;;;;4913877;29;20091;-67
2021/07/12 07:11:12;;;;;;;2.30;1.70;;;;;;;;;;4914866;29;20484;-69
2021/07/12 07:13:39;;;;;;;1.63;1.52;;;;;;;;;;4914344;29;20102;-68
2021/07/12 07:16:06;;;;;;;2.38;2.03;;;;;;;;;;4915501;29;20115;-68
2021/07/12 07:18:33;;;;;;;1.67;1.33;;;;;;;;;;4914243;29;20478;-68
2021/07/12 07:21:00;;;;;;;2.53;1.63;;;;;;;;;;4914715;29;20044;-67
2021/07/12 07:23:26;;;;;;;4.18;1.33;;;;;;;;;;4914120;29;20499;-67
2021/07/12 07:25:53;;;;;;;4.03;1.38;;;;;;;;;;4914796;29;20083;-67
2021/07/12 07:28:20;;;;;;;2.03;1.30;;;;;;;;;;4914064;29;20504;-68
2021/07/12 07:30:47;;;;;;;2.63;1.67;;;;;;;;;;4914264;29;20135;-68
2021/07/12 07:33:13;;;;;;;1.63;1.38;;;;;;;;;;4914779;29;20086;-68
2021/07/12 07:35:40;;;;;;;2.03;1.35;;;;;;;;;;4914120;29;20476;-68
2021/07/12 07:38:07;;;;;;;1.88;1.50;;;;;;;;;;4913395;29;20498;-68
2021/07/12 07:40:33;;;;;;;2.42;1.48;;;;;;;;;;4913976;29;20653;-68
2021/07/12 07:43:00;;;;;;;2.00;1.45;;;;;;;;;;4914508;29;20056;-68
2021/07/12 07:45:27;;;;;;;2.35;1.58;;;;;;;;;;4914052;29;20064;-68
2021/07/12 07:47:53;;;;;;;1.80;1.60;;;;;;;;;;4914739;29;20455;-68
2021/07/12 07:50:21;;;;;;;1.55;1.45;;;;;;;;;;4917998;29;20099;-68
2021/07/12 07:52:47;;;;;;;3.70;2.38;;;;;;;;;;4918145;29;20117;-69
2021/07/12 07:55:14;;;;;;;1.58;1.33;;;;;;;;;;4917837;29;20183;-68
2021/07/12 07:57:41;;;;;;;2.20;1.10;;;;;;;;;;4918215;29;20107;-67
2021/07/12 08:00:14;;;;;;;1.40;1.27;;;;;;;;;;4918052;29;20448;-67
2021/07/12 08:02:40;;;;;;;3.38;1.33;;;;;;;;;;4914559;29;20075;-68
2021/07/12 08:05:07;;;;;;;1.80;1.35;;;;;;;;;;4916612;29;20052;-68
2021/07/12 08:07:35;;;;;;;2.03;1.30;;;;;;;;;;4917310;29;20098;-68
2021/07/12 08:10:08;;;;;;;1.20;1.10;;;;;;;;;;4917179;29;20524;-68
2021/07/12 08:12:35;;;;;;;3.17;1.60;;;;;;;;;;4917398;29;20409;-68
2021/07/12 08:15:06;;;;;;;1.92;1.33;;;;;;;;;;4918571;29;20302;-68
2021/07/12 08:17:33;;;;;;;2.90;1.33;;;;;;;;;;4917924;29;20110;-68
2021/07/12 08:19:59;;;;;;;2.70;1.55;;;;;;;;;;4917976;29;20090;-68
2021/07/12 08:22:42;;;;;;;;;;;;;;;;;;4917809;29;20048;-68
2021/07/12 08:25:10;;;;;;;4.63;1.15;;;;;;;;;;4917467;29;20394;-68
2021/07/12 08:27:36;;;;;;;2.45;1.10;;;;;;;;;;4916366;29;20098;-68
2021/07/12 08:30:05;;;;;;;1.38;1.10;;;;;;;;;;4917398;29;20088;-68
2021/07/12 08:32:31;;;;;;;1.20;1.08;;;;;;;;;;4916244;29;20127;-68
2021/07/12 08:34:58;;;;;;;2.10;1.17;;;;;;;;;;4917038;29;20100;-68
2021/07/12 08:37:24;;;;;;;2.55;1.48;;;;;;;;;;4917072;29;20088;-68
2021/07/12 08:39:51;;;;;;;2.03;1.13;;;;;;;;;;4917158;29;20086;-68
2021/07/12 08:42:19;;;;;;;1.70;1.42;;;;;;;;;;4920548;29;20080;-68
2021/07/12 08:44:45;;;;;;;2.08;1.35;;;;;;;;;;4931529;29;20048;-68
2021/07/12 08:47:12;;;;;;;1.27;1.15;;;;;;;;;;4916997;29;20111;-68
2021/07/12 08:49:39;;;;;;;4.18;1.38;;;;;;;;;;4917066;29;20084;-68
2021/07/12 08:52:06;;;;;;;2.58;1.00;;;;;;;;;;4916772;29;20503;-68
2021/07/12 08:54:33;;;;;;;1.35;1.10;;;;;;;;;;4923376;29;20048;-68
2021/07/12 08:56:59;;;;;;;2.20;1.00;;;;;;;;;;4916672;29;20080;-68
2021/07/12 08:59:37;;;;;;;1.30;1.20;;;;;;;;;;4917183;29;20483;-68
2021/07/12 09:02:09;;;;;;;1.77;1.23;;;;;;;;;;4917213;29;20087;-68
2021/07/12 09:04:38;;;;;;;1.90;1.30;;;;;;;;;;4917886;29;20080;-68
2021/07/12 09:07:06;;;;;;;1.60;1.00;;;;;;;;;;4916505;29;20324;-68
2021/07/12 09:09:34;;;;;;;1.40;1.30;;;;;;;;;;4916877;29;20080;-68
2021/07/12 09:12:17;;;;;;;6.03;1.25;;;;;;;;;;4917479;29;20048;-68
2021/07/12 09:15:11;;;;;;;1.50;1.05;;;;;;;;;;4917756;29;20102;-68
2021/07/12 09:17:40;;;;;;;1.33;1.17;;;;;;;;;;4917835;29;20122;-68
2021/07/12 09:20:08;;;;;;;2.65;1.10;;;;;;;;;;4917363;29;20095;-68
2021/07/12 09:22:37;;;;;;;1.05;0.95;;;;;;;;;;4917231;29;20134;-68
2021/07/12 09:25:11;;;;;;;1.10;0.98;;;;;;;;;;4921112;29;20083;-68
2021/07/12 09:27:41;;;;;;;4.10;1.38;;;;;;;;;;4936336;29;20500;-68
2021/07/12 09:30:09;;;;;;;3.65;1.42;;;;;;;;;;4936562;29;20503;-68
2021/07/12 09:32:38;;;;;;;1.60;1.48;;;;;;;;;;4935936;29;20204;-68
2021/07/12 09:35:16;;;;;;;1.05;1.00;;;;;;;;;;4935075;29;20047;-73
2021/07/12 09:37:54;;;;;;;5.22;1.20;;;;;;;;;;4934801;29;20134;-66
2021/07/12 09:40:21;;;;;;;0.82;0.82;;;;;;;;;;4905606;29;20144;-68
2021/07/12 09:42:49;;;;;;;1.55;1.30;;;;;;;;;;4907195;29;20084;-67
2021/07/12 09:45:21;;;;;;;1.27;1.13;;;;;;;;;;4913245;29;20531;-72
2021/07/12 09:47:49;;;;;;;3.60;1.20;;;;;;;;;;4914665;29;20055;-70
2021/07/12 09:50:24;;;;;;;1.27;1.17;;;;;;;;;;4915661;29;20076;-74
2021/07/12 09:52:51;;;;;;;1.35;1.00;;;;;;;;;;4912370;29;20048;-67
2021/07/12 09:55:23;;;;;;;1.33;1.23;;;;;;;;;;4915308;29;20087;-70
2021/07/12 09:58:09;;;;;;;2.30;1.20;;;;;;;;;;4915602;29;20546;-71
2021/07/12 10:01:04;;;;;;;1.30;1.20;;;;;;;;;;4912868;29;20056;-68
2021/07/12 10:03:30;;;;;;;2.47;1.00;;;;;;;;;;4908505;29;20154;-69
2021/07/12 10:05:58;;;;;;;3.35;1.20;;;;;;;;;;4897877;29;20524;-68
2021/07/12 10:08:24;;;;;;;2.35;1.10;;;;;;;;;;4922971;29;20055;-68
2021/07/12 10:10:51;;;;;;;3.13;1.23;;;;;;;;;;4921144;29;20597;-68
2021/07/12 10:13:19;;;;;;;1.10;0.98;;;;;;;;;;4915140;29;20052;-69
2021/07/12 10:15:45;;;;;;;2.05;1.40;;;;;;;;;;4913566;29;20051;-68
2021/07/12 10:18:12;;;;;;;1.17;0.90;;;;;;;;;;4928904;23;20112;-65
2021/07/12 10:20:39;;;;;;;2.50;1.20;;;;;;;;;;4914910;29;20087;-65
2021/07/12 10:23:06;;;;;;;1.35;1.25;;;;;;;;;;4914888;29;20491;-70
2021/07/12 10:25:34;;;;;;;2.53;1.20;;;;;;;;;;4922315;29;20562;-65
2021/07/12 10:28:06;;;;;;;1.20;1.10;;;;;;;;;;4913862;29;20083;-65
2021/07/12 10:30:49;;;;;;;2.55;0.90;;;;;;;;;;4895246;29;20052;-65
2021/07/12 10:33:20;;;;;;;0.88;0.88;;;;;;;;;;4911095;29;20049;-66
2021/07/12 10:35:47;;;;;;;4.35;1.35;;;;;;;;;;4912042;29;20080;-65
2021/07/12 10:38:17;;;;;;;1.13;1.02;;;;;;;;;;4902281;29;20102;-66
2021/07/12 10:40:54;;;;;;;1.17;1.02;;;;;;;;;;4904634;29;20104;-66
2021/07/12 10:43:46;;;;;;;1.60;1.08;;;;;;;;;;4898011;29;20125;-66
2021/07/12 10:46:26;;;;;;;2.00;1.50;;;;;;;;;;4912410;29;20083;-65
2021/07/12 10:48:57;;;;;;;2.83;1.50;;;;;;;;;;4914752;29;20048;-65
2021/07/12 10:51:34;;;;;;;1.85;1.60;;;;;;;;;;4914749;29;20060;-66
2021/07/12 10:54:12;;;;;;;1.35;1.17;;;;;;;;;;4914487;29;20527;-66
2021/07/12 10:56:54;;;;;;;2.72;1.00;;;;;;;;;;4894480;29;20080;-66
2021/07/12 10:59:30;;;;;;;;;;;;;;;;;;4913875;29;20056;-66
2021/07/12 11:01:58;;;;;;;1.40;1.10;;;;;;;;;;4926556;29;19930;-65
2021/07/12 11:04:37;;;;;;;1.00;0.90;;;;;;;;;;4913806;29;20135;-65
2021/07/12 11:07:06;;;;;;;1.20;0.90;;;;;;;;;;4914804;29;20087;-66
2021/07/12 11:09:48;;;;;;;1.10;1.00;;;;;;;;;;4914136;29;20048;-65
2021/07/12 11:12:50;;;;;;;0.97;0.97;;;;;;;;;;4912240;29;20272;-66
2021/07/12 11:15:18;;;;;;;0.90;0.90;;;;;;;;;;4898059;29;20332;-65
2021/07/12 11:17:49;;;;;;;1.27;1.10;;;;;;;;;;4913458;29;20411;-65
2021/07/12 11:20:16;;;;;;;1.33;0.95;;;;;;;;;;4919790;29;20138;-65
2021/07/12 11:22:53;;;;;;;2.15;1.38;;;;;;;;;;4917233;29;20083;-65
2021/07/12 11:25:42;;;;;;;1.25;1.15;;;;;;;;;;4919339;29;20127;-65
2021/07/12 11:28:09;;;;;;;1.20;1.00;;;;;;;;;;4919440;29;20473;-65
2021/07/12 11:30:35;;;;;;;1.25;1.15;;;;;;;;;;4921625;29;20047;-65
2021/07/12 11:33:03;;;;;;;1.15;0.93;;;;;;;;;;4919975;29;20055;-65
2021/07/12 11:35:29;;;;;;;1.30;1.20;;;;;;;;;;4917510;29;20044;-65
2021/07/12 11:38:04;;;;;;;1.23;1.00;;;;;;;;;;4922590;29;20107;-66
2021/07/12 11:40:30;;;;;;;1.58;1.10;;;;;;;;;;4921096;29;20091;-65
2021/07/12 11:42:57;;;;;;;0.80;0.80;;;;;;;;;;4918071;29;20088;-66
2021/07/12 11:45:24;;;;;;;1.30;1.20;;;;;;;;;;4915225;29;20083;-65
2021/07/12 11:47:55;;;;;;;2.55;2.20;;;;;;;;;;4925750;29;20146;-65
2021/07/12 11:50:27;;;;;;;1.27;1.17;;;;;;;;;;4936967;29;20052;-65
2021/07/12 11:52:56;;;;;;;1.65;1.30;;;;;;;;;;4918962;29;20055;-66
2021/07/12 11:55:25;;;;;;;1.58;1.10;;;;;;;;;;4920324;29;20055;-65
2021/07/12 11:58:00;;;;;;;1.33;1.23;;;;;;;;;;4921471;29;20052;-65
2021/07/12 12:00:30;;;;;;;1.10;1.00;;;;;;;;;;4920981;29;20048;-65
2021/07/12 12:03:03;;;;;;;1.33;1.10;;;;;;;;;;4918136;29;20499;-65
2021/07/12 12:05:32;;;;;;;1.35;1.20;;;;;;;;;;4917992;29;20305;-65
2021/07/12 12:07:59;;;;;;;1.63;1.13;;;;;;;;;;4923221;29;20168;-65
2021/07/12 12:10:32;;;;;;;1.38;1.27;;;;;;;;;;4920262;29;20060;-66
2021/07/12 12:13:00;;;;;;;1.30;1.20;;;;;;;;;;4917918;29;20079;-65
2021/07/12 12:15:29;;;;;;;1.40;1.10;;;;;;;;;;4902607;29;20099;-65
2021/07/12 12:18:06;;;;;;;3.17;0.93;;;;;;;;;;4921049;29;20100;-65
2021/07/12 12:20:33;;;;;;;1.00;1.00;;;;;;;;;;4920876;29;20087;-65
2021/07/12 12:23:26;;;;;;;2.38;0.98;;;;;;;;;;4920466;29;20781;-65
2021/07/12 12:25:57;;;;;;;1.88;1.02;;;;;;;;;;4918725;29;20056;-65
2021/07/12 12:28:23;;;;;;;2.47;1.10;;;;;;;;;;4917313;29;20053;-66
2021/07/12 12:30:50;;;;;;;1.55;1.08;;;;;;;;;;4913599;29;20084;-66
2021/07/12 12:33:23;;;;;;;2.33;1.02;;;;;;;;;;4914033;29;20044;-66
2021/07/12 12:35:54;;;;;;;4.55;1.27;;;;;;;;;;4917175;29;20087;-65
2021/07/12 12:38:21;;;;;;;0.80;0.80;;;;;;;;;;4908519;29;20205;-65
2021/07/12 12:40:55;;;;;;;1.27;1.20;;;;;;;;;;4917439;29;20048;-65
2021/07/12 12:43:22;;;;;;;1.40;1.30;;;;;;;;;;4917073;29;20044;-65
2021/07/12 12:45:51;;;;;;;2.45;1.20;;;;;;;;;;4917250;29;20044;-65
2021/07/12 12:48:38;;;;;;;1.90;1.00;;;;;;;;;;4921599;29;20048;-66
2021/07/12 12:51:33;;;;;;;1.00;0.90;;;;;;;;;;4909345;29;20443;-65
2021/07/12 12:54:05;;;;;;;1.13;1.02;;;;;;;;;;4905617;29;20111;-66
2021/07/12 12:56:33;;;;;;;1.88;0.90;;;;;;;;;;4916809;29;20052;-66
2021/07/12 12:59:03;;;;;;;1.15;0.80;;;;;;;;;;4923044;29;20088;-66
2021/07/12 13:01:35;;;;;;;1.30;1.20;;;;;;;;;;4916211;29;20487;-65
2021/07/12 13:04:11;;;;;;;1.23;1.13;;;;;;;;;;4892457;29;20056;-66
2021/07/12 13:06:41;;;;;;;0.90;0.90;;;;;;;;;;4916337;29;20083;-66
2021/07/12 13:09:10;;;;;;;4.25;1.60;;;;;;;;;;4912961;29;20051;-66
2021/07/12 13:11:37;;;;;;;1.48;1.27;;;;;;;;;;4917645;29;20087;-66
2021/07/12 13:14:03;;;;;;;1.08;0.98;;;;;;;;;;4915923;29;20083;-66
2021/07/12 13:16:33;;;;;;;1.08;0.98;;;;;;;;;;4917701;29;20550;-66
2021/07/12 13:18:59;;;;;;;0.95;0.95;;;;;;;;;;4916207;29;20058;-65
2021/07/12 13:21:45;;;;;;;1.23;1.02;;;;;;;;;;4916114;29;20052;-65
2021/07/12 13:24:12;;;;;;;1.05;1.05;;;;;;;;;;4916481;29;20152;-66
2021/07/12 13:26:38;;;;;;;2.72;1.40;;;;;;;;;;4912389;29;20092;-66
2021/07/12 13:29:06;;;;;;;1.42;1.10;;;;;;;;;;4916276;29;20063;-66
2021/07/12 13:31:32;;;;;;;1.25;1.15;;;;;;;;;;4915003;29;20304;-66
2021/07/12 13:33:59;;;;;;;1.02;0.80;;;;;;;;;;4916401;29;20045;-66
2021/07/12 13:36:25;;;;;;;1.38;1.00;;;;;;;;;;4916700;29;20104;-66
2021/07/12 13:38:52;;;;;;;1.33;1.23;;;;;;;;;;4915429;29;20084;-65
2021/07/12 13:41:19;;;;;;;3.47;1.30;;;;;;;;;;4915786;29;20048;-65
2021/07/12 13:43:45;;;;;;;6.10;1.98;;;;;;;;;;4916553;29;20087;-65
2021/07/12 13:46:12;;;;;;;2.80;1.27;;;;;;;;;;4915492;29;20048;-65
2021/07/12 13:48:38;;;;;;;2.75;1.15;;;;;;;;;;4905478;29;20060;-66
2021/07/12 13:51:05;;;;;;;2.40;1.70;;;;;;;;;;4908298;29;20084;-66
2021/07/12 13:53:32;;;;;;;1.23;1.13;;;;;;;;;;4906870;29;20049;-66
2021/07/12 13:55:59;;;;;;;3.65;2.40;;;;;;;;;;4897948;29;20059;-66
2021/07/12 13:58:25;;;;;;;4.13;1.67;;;;;;;;;;4913019;29;20484;-66
2021/07/12 14:00:52;;;;;;;1.23;1.13;;;;;;;;;;4916677;29;20056;-65
2021/07/12 14:03:19;;;;;;;1.83;1.05;;;;;;;;;;4919478;29;20087;-65
2021/07/12 14:05:45;;;;;;;1.52;1.20;;;;;;;;;;4925343;29;20055;-66
2021/07/12 14:08:12;;;;;;;1.50;1.20;;;;;;;;;;4925464;29;20075;-66
2021/07/12 14:10:39;;;;;;;1.35;1.20;;;;;;;;;;4931034;29;20132;-66
2021/07/12 14:13:05;;;;;;;1.63;1.50;;;;;;;;;;4924497;29;20091;-69
2021/07/12 14:15:32;;;;;;;1.27;1.17;;;;;;;;;;4928649;29;20051;-65
2021/07/12 14:18:12;;;;;;;2.47;1.48;;;;;;;;;;4913665;29;20186;-65
2021/07/12 14:20:38;;;;;;;2.53;1.20;;;;;;;;;;4914034;29;20099;-65
2021/07/12 14:23:05;;;;;;;1.80;1.27;;;;;;;;;;4892414;29;20237;-65
2021/07/12 14:25:32;;;;;;;0.90;0.90;;;;;;;;;;4919047;29;20099;-64
2021/07/12 14:27:58;;;;;;;1.50;1.27;;;;;;;;;;4927184;29;20083;-64
2021/07/12 14:30:25;;;;;;;2.65;1.33;;;;;;;;;;4924192;29;20048;-65
2021/07/12 14:32:51;;;;;;;2.70;1.20;;;;;;;;;;4925644;29;20083;-65
2021/07/12 14:35:19;;;;;;;2.97;1.20;;;;;;;;;;4929555;29;20090;-64
2021/07/12 14:37:46;;;;;;;1.00;1.00;;;;;;;;;;4921492;29;20534;-64
2021/07/12 14:40:13;;;;;;;1.33;1.23;;;;;;;;;;4925523;29;20055;-64
2021/07/12 14:42:40;;;;;;;1.25;1.10;;;;;;;;;;4922541;29;20131;-65
2021/07/12 14:45:06;;;;;;;1.33;1.23;;;;;;;;;;4932036;29;20055;-65
2021/07/12 14:47:35;;;;;;;1.45;1.10;;;;;;;;;;4935080;29;20499;-64
2021/07/12 14:50:03;;;;;;;1.00;1.00;;;;;;;;;;4917989;29;20088;-64
2021/07/12 14:52:29;;;;;;;1.30;1.20;;;;;;;;;;4897124;29;20080;-65
2021/07/12 14:54:56;;;;;;;1.75;1.00;;;;;;;;;;4898250;29;20102;-65
2021/07/12 14:57:23;;;;;;;2.10;1.10;;;;;;;;;;4906543;29;20542;-65